Site contains unofficial IBTrACS data. Visit the IBTrACS Website to access archived data.

1914 NOT_NAMED (1914001S13142)


IBTrACS version v04r00. Visit IBTrACS website for data access.
Please direct all questions to the IBTrACS Q and A forum

Storm track - Intensity - Wind Radii - Intensity Data - Source Data - All data

Summary Information

Storm ID 1914001S13142
Start Jan 1 06Z
Landfall Jan 3 23Z
End Jan 4 23Z
ATCF IDs
Track status Best track data.

Storm track plot

Map of storm track

Intensity plots

No Intensity information for this storm


Radial wind information

No radial wind information for this storm


Position and Intensity Table

BASIN ISO_TIME_________ NATURE LAT LON
degrees north degrees east
SP 1914-01-01 06:00:00 NR -13.06 142.22
SP 09:00:00 NR -12.97 142.40
SP 10:00:00 NR -12.94 142.45
SP 11:00:00 NR -12.90 142.50
SP 12:00:00 NR -12.86 142.57
SP 15:00:00 NR -12.71 142.75
SP 16:00:00 NR -12.65 142.80
SP 18:00:00 NR -12.55 142.88
SP 21:00:00 NR -12.39 142.93
SP 23:00:00 NR -12.30 142.90
SP 23:30:00 NR -12.28 142.88
SP 1914-01-02 00:00:00 NR -12.27 142.86
SP 03:00:00 NR -12.18 142.64
SP 06:00:00 NR -12.11 142.34
SP 09:00:00 NR -12.04 142.01
SP 11:00:00 NR -12.00 141.80
SP 12:00:00 NR -11.96 141.73
SP 15:00:00 NR -11.85 141.55
SP 18:00:00 NR -11.75 141.36
SP 21:00:00 NR -11.70 141.12
SP 23:00:00 NR -11.70 140.90
SP 23:30:00 NR -11.71 140.83
SP 1914-01-03 00:00:00 NR -11.72 140.76
SP 03:00:00 NR -11.81 140.27
SP 06:00:00 NR -11.97 139.71
SP 09:00:00 NR -12.16 139.11
SP 11:00:00 NR -12.30 138.70
SP 12:00:00 NR -12.37 138.50
SP 15:00:00 NR -12.62 137.88
SP 18:00:00 NR -12.87 137.27
SP 21:00:00 NR -13.09 136.72
SP 23:00:00 NR -13.20 136.40
SP 23:30:00 NR -13.22 136.33
SP 1914-01-04 00:00:00 NR -13.23 136.27
SP 03:00:00 NR -13.29 135.96
SP 06:00:00 NR -13.30 135.71
SP 09:00:00 NR -13.30 135.47
SP 11:00:00 NR -13.30 135.30
SP 12:00:00 NR -13.31 135.20
SI 15:00:00 NR -13.34 134.87
SI 18:00:00 NR -13.39 134.49
SI 21:00:00 NR -13.45 134.08
SI 23:00:00 NR -13.50 133.80

Source Information

Agency Information
USA
TOKYO
CMA
HKO
NEWDELHI
REUNION
BOM
NADI
WELLINGTON
DS824
TD9636 cons_worldwide_trop_cyclone_18710101-19891231-006:Line=727
TD9635
NEUMANN
MLC

All available IBTrACS Data

SEASON BASIN SUBBASIN ISO_TIME_________ NATURE LAT LON DIST2LAND LANDFALL IFLAG USA SSHS TD9636 LAT TD9636 LON TD9636 STAGE STORM SPEED STORM DIR
Year degrees north degrees east km km 1 degrees north degrees east kts degrees
1914 SP EA 1914-01-01 06:00:00 NR -13.06 142.22 0 0 ______________ -1 4 64
1914 SP EA 09:00:00 NR -12.97 142.40 0 0 ______________ -1 4 62
1914 SP EA 10:00:00 NR -12.94 142.45 0 0 ______________ -1 4 54
1914 SP EA 11:00:00 NR -12.90 142.50 0 0 __________O___ -1 -12.90 142.50 7 4 54
1914 SP EA 12:00:00 NR -12.86 142.57 0 0 __________P___ -1 -12.84 142.57 7 5 51
1914 SP EA 15:00:00 NR -12.71 142.75 0 0 __________P___ -1 -12.68 142.76 7 5 48
1914 SP EA 16:00:00 NR -12.65 142.80 0 0 __________P___ -1 -12.62 142.81 7 4 40
1914 SP EA 18:00:00 NR -12.55 142.88 0 0 __________P___ -1 -12.52 142.89 7 4 26
1914 SP EA 21:00:00 NR -12.39 142.93 0 0 __________P___ -1 -12.38 142.94 7 3 6
1914 SP EA 23:00:00 NR -12.30 142.90 0 0 __________O___ -1 -12.30 142.90 7 3 336
1914 SP EA 23:30:00 NR -12.28 142.88 0 0 __________P___ -1 -12.28 142.88 7 3 309
1914 SP EA 1914-01-02 00:00:00 NR -12.27 142.86 0 0 __________P___ -1 -12.27 142.86 7 4 294
1914 SP EA 03:00:00 NR -12.18 142.64 0 0 __________P___ -1 -12.18 142.64 7 5 288
1914 SP EA 06:00:00 NR -12.11 142.34 0 0 __________P___ -1 -12.11 142.34 7 6 282
1914 SP EA 09:00:00 NR -12.04 142.01 0 0 __________P___ -1 -12.04 142.01 7 6 281
1914 SP EA 11:00:00 NR -12.00 141.80 10 10 __________O___ -1 -12.00 141.80 7 6 286
1914 SP EA 12:00:00 NR -11.96 141.73 15 15 __________P___ -1 -11.96 141.73 7 4 302
1914 SP EA 15:00:00 NR -11.85 141.55 31 31 __________P___ -1 -11.85 141.55 7 4 300
1914 SP EA 18:00:00 NR -11.75 141.36 54 54 __________P___ -1 -11.75 141.36 7 5 290
1914 SP EA 21:00:00 NR -11.70 141.12 86 86 __________P___ -1 -11.70 141.12 7 6 277
1914 SP EA 23:00:00 NR -11.70 140.90 103 103 __________O___ -1 -11.70 140.90 7 7 268
1914 SP EA 23:30:00 NR -11.71 140.83 112 112 __________P___ -1 -11.71 140.83 7 8 263
1914 SP EA 1914-01-03 00:00:00 NR -11.72 140.76 112 112 __________P___ -1 -11.72 140.76 7 10 259
1914 SP EA 03:00:00 NR -11.81 140.27 158 158 __________P___ -1 -11.81 140.27 7 11 256
1914 SP EA 06:00:00 NR -11.97 139.71 217 217 __________P___ -1 -11.97 139.71 7 12 253
1914 SP EA 09:00:00 NR -12.16 139.11 228 184 __________P___ -1 -12.16 139.11 7 13 251
1914 SP EA 11:00:00 NR -12.30 138.70 184 163 __________O___ -1 -12.30 138.70 7 13 250
1914 SP EA 12:00:00 NR -12.37 138.50 163 103 __________P___ -1 -12.37 138.50 7 13 248
1914 SP EA 15:00:00 NR -12.62 137.88 103 58 __________P___ -1 -12.62 137.88 7 13 248
1914 SP EA 18:00:00 NR -12.87 137.27 63 10 __________P___ -1 -12.87 137.27 7 12 248
1914 SP EA 21:00:00 NR -13.09 136.72 10 0 __________P___ -1 -13.09 136.72 7 11 249
1914 SP EA 23:00:00 NR -13.20 136.40 0 0 __________O___ -1 -13.20 136.40 7 10 251
1914 SP EA 23:30:00 NR -13.22 136.33 0 0 __________P___ -1 -13.22 136.33 7 8 255
1914 SP EA 1914-01-04 00:00:00 NR -13.23 136.27 0 0 __________P___ -1 -13.23 136.27 7 6 259
1914 SP EA 03:00:00 NR -13.29 135.96 0 0 __________P___ -1 -13.29 135.96 7 6 263
1914 SP EA 06:00:00 NR -13.30 135.71 0 0 __________P___ -1 -13.30 135.71 7 5 269
1914 SP EA 09:00:00 NR -13.30 135.47 0 0 __________P___ -1 -13.30 135.47 7 5 270
1914 SP EA 11:00:00 NR -13.30 135.30 0 0 __________O___ -1 -13.30 135.30 7 5 268
1914 SP EA 12:00:00 NR -13.31 135.20 0 0 __________P___ -1 -13.31 135.20 7 6 265
1914 SI WA 15:00:00 NR -13.34 134.87 0 0 __________P___ -1 -13.34 134.87 7 7 263
1914 SI WA 18:00:00 NR -13.39 134.49 0 0 __________P___ -1 -13.39 134.49 7 8 261
1914 SI WA 21:00:00 NR -13.45 134.08 0 0 __________P___ -1 -13.45 134.08 7 8 261
1914 SI WA 23:00:00 NR -13.50 133.80 0 __________O___ -1 -13.50 133.80 7 8 261